Terminal Aerodrome Forecast
Issued by NWS Sterling, VA

Current Version | Previous Version | Graphics & Text | Print | Product List | Glossary On
Versions: 1 2 3 4 5 6 7 8 9 10 11 12 13 14 15 16 17 18 19 20 21 22 23 24
000
FTUS41 KLWX 100657 AAB
TAFDCA
TAF AMD
KDCA 100657Z 1007/1112 26004KT P6SM SCT009 BKN110
     FM100800 28010G18KT P6SM SCT080
     FM101300 27013G24KT P6SM FEW250
     FM102200 25006KT P6SM BKN100=

USA.gov is the U.S. government's official web portal to all federal, state and local government web resources and services.